createdAt,value
2022-12-05T00:02:21.936Z,23.27
2022-12-05T00:04:52.335Z,23.30
2022-12-05T00:07:22.536Z,23.39
2022-12-05T00:09:52.811Z,23.40
2022-12-05T00:12:23.146Z,23.36
2022-12-05T00:14:53.456Z,23.27
2022-12-05T00:17:23.762Z,23.30
2022-12-05T00:19:56.710Z,23.30
2022-12-05T00:22:28.273Z,23.30
2022-12-05T00:24:58.543Z,23.30
2022-12-05T00:27:28.908Z,23.19
2022-12-05T00:29:59.505Z,23.13
2022-12-05T00:32:33.195Z,23.16
2022-12-05T00:35:03.473Z,23.16
2022-12-05T00:37:33.690Z,23.15
2022-12-05T00:40:03.737Z,23.12
2022-12-05T00:42:34.219Z,23.00
2022-12-05T00:45:04.797Z,23.06
2022-12-05T00:47:38.296Z,23.10
2022-12-05T00:50:09.543Z,23.02
2022-12-05T00:52:40.195Z,23.06
2022-12-05T00:55:10.903Z,23.08
2022-12-05T00:57:41.340Z,23.13
2022-12-05T01:00:11.990Z,23.16
2022-12-05T01:02:42.402Z,23.15
2022-12-05T01:05:12.696Z,23.15
2022-12-05T01:07:43.077Z,23.09
2022-12-05T01:10:13.427Z,23.06
2022-12-05T01:12:43.001Z,23.06
2022-12-05T01:15:13.452Z,23.02
2022-12-05T01:17:43.792Z,23.02
2022-12-05T01:20:13.500Z,23.05
2022-12-05T01:22:43.508Z,23.02
2022-12-05T01:25:13.800Z,22.99
2022-12-05T01:27:44.180Z,22.98
2022-12-05T01:30:14.870Z,22.96
2022-12-05T01:32:45.083Z,22.96
2022-12-05T01:35:15.402Z,22.99
2022-12-05T01:37:45.658Z,22.96
2022-12-05T01:40:15.961Z,22.96
2022-12-05T01:42:46.250Z,22.85
2022-12-05T01:45:20.667Z,22.71
2022-12-05T01:47:51.098Z,22.64
2022-12-05T01:50:20.677Z,22.59
2022-12-05T01:52:51.022Z,22.57
2022-12-05T01:55:21.894Z,22.59
2022-12-05T01:57:52.336Z,22.62
2022-12-05T02:00:23.348Z,22.58
2022-12-05T02:03:00.004Z,22.62
2022-12-05T02:05:33.491Z,22.62
2022-12-05T02:08:07.736Z,22.61
2022-12-05T02:10:49.960Z,22.62
2022-12-05T02:13:44.497Z,22.65
2022-12-05T02:16:31.548Z,22.64
2022-12-05T02:19:07.602Z,22.62
2022-12-05T02:22:04.793Z,22.59
2022-12-05T02:24:57.227Z,22.69
2022-12-05T02:27:30.240Z,22.72
2022-12-05T02:30:07.164Z,22.64
2022-12-05T02:33:09.802Z,22.57
2022-12-05T02:36:06.159Z,22.54
2022-12-05T02:39:14.854Z,22.55
2022-12-05T02:41:50.867Z,22.51
2022-12-05T02:44:45.675Z,22.61
2022-12-05T02:47:20.521Z,22.78
2022-12-05T02:49:53.698Z,22.89
2022-12-05T02:52:26.312Z,22.84
2022-12-05T02:54:57.796Z,22.84
2022-12-05T02:57:28.415Z,22.95
2022-12-05T02:59:58.795Z,22.89
2022-12-05T03:02:34.020Z,22.81
2022-12-05T03:05:23.851Z,22.78
2022-12-05T03:07:58.703Z,22.79
2022-12-05T03:10:31.539Z,22.81
2022-12-05T03:13:11.017Z,22.81
2022-12-05T03:15:48.455Z,22.88
2022-12-05T03:18:25.400Z,22.99
2022-12-05T03:21:37.267Z,22.94
2022-12-05T03:24:13.132Z,22.78
2022-12-05T03:26:57.179Z,22.84
2022-12-05T03:29:58.083Z,22.84
2022-12-05T03:33:02.367Z,22.92
2022-12-05T03:35:58.010Z,22.95
2022-12-05T03:38:33.619Z,23.05
2022-12-05T03:41:35.871Z,23.06
2022-12-05T03:44:11.878Z,23.00
2022-12-05T03:46:56.150Z,22.94
2022-12-05T03:49:49.119Z,22.91
2022-12-05T03:52:31.543Z,22.89
2022-12-05T03:55:07.178Z,22.88
2022-12-05T03:58:06.187Z,22.88
2022-12-05T04:00:42.186Z,22.88
2022-12-05T04:03:24.195Z,22.86
2022-12-05T04:06:01.362Z,22.82
2022-12-05T04:08:36.869Z,22.73
2022-12-05T04:11:17.937Z,22.76
2022-12-05T04:14:10.861Z,22.76
2022-12-05T04:17:04.957Z,22.86
2022-12-05T04:20:06.875Z,22.95
2022-12-05T04:22:38.298Z,23.02
2022-12-05T04:25:30.978Z,23.05
2022-12-05T04:28:21.954Z,23.06
2022-12-05T04:31:13.274Z,23.08
2022-12-05T04:34:06.615Z,23.13
2022-12-05T04:36:45.654Z,23.13
2022-12-05T04:39:25.806Z,23.12
2022-12-05T04:42:06.877Z,23.12
2022-12-05T04:44:43.702Z,23.17
2022-12-05T04:47:16.274Z,23.15
2022-12-05T04:49:53.558Z,23.10
2022-12-05T04:52:24.840Z,23.02
2022-12-05T04:55:00.659Z,23.06
2022-12-05T04:57:38.830Z,22.98
2022-12-05T05:00:09.809Z,22.98
2022-12-05T05:02:51.293Z,23.09
2022-12-05T05:05:23.600Z,23.13
2022-12-05T05:07:56.226Z,23.19
2022-12-05T05:10:54.136Z,23.17
2022-12-05T05:13:24.465Z,23.15
2022-12-05T05:15:54.896Z,23.15
2022-12-05T05:18:25.252Z,23.12
2022-12-05T05:20:55.633Z,23.12
2022-12-05T05:23:26.079Z,23.09
2022-12-05T05:25:58.003Z,22.99
2022-12-05T05:28:28.269Z,23.02
2022-12-05T05:31:04.683Z,23.08
2022-12-05T05:33:35.831Z,23.13
2022-12-05T05:36:15.431Z,23.16
2022-12-05T05:38:51.760Z,23.23
2022-12-05T05:41:23.061Z,23.26
2022-12-05T05:43:53.663Z,23.23
2022-12-05T05:46:26.134Z,23.20
2022-12-05T05:48:57.106Z,23.24
2022-12-05T05:51:30.566Z,23.23
2022-12-05T05:54:02.025Z,23.27
2022-12-05T05:56:32.423Z,23.27
2022-12-05T05:59:04.974Z,23.29
2022-12-05T06:01:35.275Z,23.30
2022-12-05T06:04:05.953Z,23.26
2022-12-05T06:06:36.434Z,23.26
2022-12-05T06:09:09.317Z,23.30
2022-12-05T06:11:39.513Z,23.31
2022-12-05T06:14:09.284Z,23.33
2022-12-05T06:16:39.538Z,23.36
2022-12-05T06:19:09.936Z,23.31
2022-12-05T06:21:39.633Z,23.29
2022-12-05T06:24:10.631Z,23.33
2022-12-05T06:26:41.025Z,23.33
2022-12-05T06:29:11.909Z,23.27
2022-12-05T06:31:44.273Z,23.24
2022-12-05T06:34:14.642Z,23.23
2022-12-05T06:36:45.121Z,23.13
2022-12-05T06:39:15.359Z,23.09
2022-12-05T06:41:45.262Z,23.08
2022-12-05T06:44:15.459Z,23.06
2022-12-05T06:46:45.868Z,23.06
2022-12-05T06:49:16.378Z,23.15
2022-12-05T06:51:46.909Z,23.19
2022-12-05T06:54:17.159Z,23.23
2022-12-05T06:56:46.930Z,23.23
2022-12-05T06:59:17.139Z,23.27
2022-12-05T07:01:48.365Z,23.30
2022-12-05T07:04:25.745Z,23.30
2022-12-05T07:06:57.633Z,23.31
2022-12-05T07:09:46.279Z,23.26
2022-12-05T07:12:19.009Z,23.26
2022-12-05T07:14:50.100Z,23.22
2022-12-05T07:17:21.960Z,23.24
2022-12-05T07:19:53.323Z,23.27
2022-12-05T07:22:25.486Z,23.33
2022-12-05T07:24:55.848Z,23.31
2022-12-05T07:27:27.932Z,23.24
2022-12-05T07:29:59.070Z,23.23
2022-12-05T07:32:32.604Z,23.24
2022-12-05T07:35:03.046Z,23.23
2022-12-05T07:37:33.309Z,23.24
2022-12-05T07:40:03.633Z,23.17
2022-12-05T07:42:34.011Z,23.13
2022-12-05T07:45:04.317Z,23.12
2022-12-05T07:47:34.793Z,23.13
2022-12-05T07:50:05.324Z,23.15
2022-12-05T07:52:35.586Z,23.08
2022-12-05T07:55:06.107Z,23.08
2022-12-05T07:57:36.492Z,23.03
2022-12-05T08:00:06.509Z,23.03
2022-12-05T08:02:42.105Z,22.99
2022-12-05T08:05:13.022Z,22.96
2022-12-05T08:07:44.297Z,22.98
2022-12-05T08:10:14.521Z,23.02
2022-12-05T08:12:44.283Z,23.03
2022-12-05T08:15:14.457Z,23.08
2022-12-05T08:17:44.796Z,23.06
2022-12-05T08:20:15.753Z,23.03
2022-12-05T08:22:46.019Z,23.02
2022-12-05T08:25:16.314Z,23.02
2022-12-05T08:27:46.671Z,23.05
2022-12-05T08:30:17.005Z,23.09
2022-12-05T08:32:47.343Z,23.05
2022-12-05T08:35:17.818Z,22.99
2022-12-05T08:37:48.060Z,22.98
2022-12-05T08:40:18.084Z,22.95
2022-12-05T08:42:48.269Z,22.96
2022-12-05T08:45:18.091Z,23.00
2022-12-05T08:47:48.286Z,23.02
2022-12-05T08:50:18.595Z,23.03
2022-12-05T08:52:48.935Z,23.05
2022-12-05T08:55:19.179Z,23.09
2022-12-05T08:57:48.993Z,23.15
2022-12-05T09:00:19.571Z,23.17
2022-12-05T09:02:55.648Z,23.15
2022-12-05T09:05:28.890Z,23.19
2022-12-05T09:08:00.937Z,23.20
2022-12-05T09:10:31.392Z,23.24
2022-12-05T09:13:01.730Z,23.24
2022-12-05T09:15:32.191Z,23.29
2022-12-05T09:18:02.639Z,23.30
2022-12-05T09:20:32.772Z,23.36
2022-12-05T09:23:02.847Z,23.36
2022-12-05T09:25:32.908Z,23.34
2022-12-05T09:28:03.178Z,23.42
2022-12-05T09:30:32.963Z,23.53
2022-12-05T09:33:03.197Z,23.56
2022-12-05T09:35:33.527Z,23.60
2022-12-05T09:38:03.846Z,23.56
2022-12-05T09:40:34.416Z,23.51
2022-12-05T09:43:20.949Z,23.45
2022-12-05T09:46:11.669Z,23.49
2022-12-05T09:48:42.359Z,23.46
2022-12-05T09:51:14.262Z,23.45
2022-12-05T09:53:45.942Z,23.46
2022-12-05T09:56:29.472Z,23.46
2022-12-05T09:59:02.175Z,23.45
2022-12-05T10:01:53.664Z,23.46
2022-12-05T10:04:27.083Z,23.56
2022-12-05T10:07:23.697Z,23.58
2022-12-05T10:10:23.717Z,23.63
2022-12-05T10:13:06.150Z,23.63
2022-12-05T10:15:53.022Z,23.74
2022-12-05T10:18:32.087Z,23.71
2022-12-05T10:21:27.817Z,23.81
2022-12-05T10:24:02.091Z,23.78
2022-12-05T10:26:40.090Z,23.85
2022-12-05T10:29:19.822Z,23.85
2022-12-05T10:31:51.291Z,23.90
2022-12-05T10:34:30.826Z,23.90
2022-12-05T10:37:04.766Z,23.97
2022-12-05T10:39:35.082Z,24.09
2022-12-05T10:42:06.743Z,24.14
2022-12-05T10:44:37.310Z,24.22
2022-12-05T10:47:07.907Z,24.28
2022-12-05T10:49:40.302Z,24.39
2022-12-05T10:52:11.839Z,24.43
2022-12-05T10:54:51.592Z,24.45
2022-12-05T10:57:31.440Z,24.42
2022-12-05T11:00:14.714Z,24.43
2022-12-05T11:02:45.361Z,24.51
2022-12-05T11:05:15.887Z,24.51
2022-12-05T11:07:46.187Z,24.45
2022-12-05T11:10:27.423Z,24.48
2022-12-05T11:12:59.518Z,24.45
2022-12-05T11:15:33.143Z,24.49
2022-12-05T11:18:28.750Z,24.62
2022-12-05T11:21:10.569Z,24.77
2022-12-05T11:23:41.165Z,24.94
2022-12-05T11:26:37.487Z,25.02
2022-12-05T11:29:40.577Z,25.04
2022-12-05T11:32:26.781Z,25.14
2022-12-05T11:35:15.335Z,25.28
2022-12-05T11:38:05.064Z,25.31
2022-12-05T11:40:41.231Z,25.45
2022-12-05T11:43:45.114Z,25.45
2022-12-05T11:46:30.168Z,25.42
2022-12-05T11:49:28.699Z,25.54
2022-12-05T11:52:04.979Z,25.69
2022-12-05T11:57:34.305Z,25.95
2022-12-05T12:00:41.362Z,26.32
2022-12-05T12:03:14.227Z,26.19
2022-12-05T12:05:57.326Z,26.12
2022-12-05T12:08:36.036Z,25.95
2022-12-05T12:11:17.140Z,25.91
2022-12-05T12:14:08.591Z,25.95
2022-12-05T12:16:55.587Z,26.03
2022-12-05T12:19:40.549Z,26.30
2022-12-05T12:22:44.218Z,26.54
2022-12-05T12:25:27.947Z,26.67
2022-12-05T12:28:22.578Z,26.69
2022-12-05T12:31:14.330Z,26.90
2022-12-05T12:34:00.113Z,26.92
2022-12-05T12:36:43.270Z,26.67
2022-12-05T12:39:31.835Z,26.51
2022-12-05T12:42:22.028Z,26.53
2022-12-05T12:45:01.468Z,26.54
2022-12-05T12:48:01.235Z,26.64
2022-12-05T12:50:41.839Z,26.40
2022-12-05T12:53:38.644Z,26.08
2022-12-05T12:56:24.530Z,25.77
2022-12-05T12:59:32.260Z,25.72
2022-12-05T13:02:07.020Z,25.93
2022-12-05T13:04:54.345Z,26.22
2022-12-05T13:07:39.527Z,26.26
2022-12-05T13:10:28.068Z,26.51
2022-12-05T13:13:01.023Z,27.31
2022-12-05T13:15:49.273Z,27.48
2022-12-05T13:18:22.600Z,27.38
2022-12-05T13:20:58.835Z,27.59
2022-12-05T13:23:29.984Z,28.17
2022-12-05T13:26:03.088Z,27.96
2022-12-05T13:28:35.295Z,27.55
2022-12-05T13:31:07.107Z,27.49
2022-12-05T13:33:43.930Z,27.66
2022-12-05T13:36:37.366Z,27.83
2022-12-05T13:39:48.008Z,28.09
2022-12-05T13:42:31.587Z,28.90
2022-12-05T13:45:12.760Z,28.68
2022-12-05T13:47:49.108Z,28.50
2022-12-05T13:50:18.916Z,28.39
2022-12-05T13:53:06.794Z,28.41
2022-12-05T13:55:40.660Z,28.62
2022-12-05T13:58:25.958Z,28.96
2022-12-05T14:01:28.202Z,29.29
2022-12-05T14:04:23.596Z,29.84
2022-12-05T14:06:54.075Z,30.20
2022-12-05T14:09:55.293Z,30.25
2022-12-05T14:12:25.647Z,30.04
2022-12-05T14:14:59.410Z,30.54
2022-12-05T14:17:42.855Z,30.72
2022-12-05T14:20:31.404Z,30.56
2022-12-05T14:23:01.486Z,30.99
2022-12-05T14:25:58.821Z,29.94
2022-12-05T14:29:06.155Z,30.32
2022-12-05T14:31:42.440Z,29.60
2022-12-05T14:34:31.470Z,29.49
2022-12-05T14:37:10.809Z,29.36
2022-12-05T14:39:54.155Z,29.08
2022-12-05T14:42:39.207Z,28.53
2022-12-05T14:45:28.213Z,28.14
2022-12-05T14:48:04.614Z,28.06
2022-12-05T14:50:41.163Z,27.94
2022-12-05T14:53:22.520Z,28.10
2022-12-05T14:56:19.575Z,28.39
2022-12-05T14:59:01.310Z,29.35
2022-12-05T15:01:37.903Z,29.15
2022-12-05T15:04:14.129Z,29.77
2022-12-05T15:06:46.842Z,29.57
2022-12-05T15:09:58.531Z,29.33
2022-12-05T15:12:51.532Z,29.11
2022-12-05T15:15:37.786Z,28.92
2022-12-05T15:18:36.034Z,28.87
2022-12-05T15:21:44.907Z,29.32
2022-12-05T15:24:20.457Z,29.39
2022-12-05T15:26:58.810Z,30.39
2022-12-05T15:29:31.783Z,30.69
2022-12-05T15:32:14.137Z,29.64
2022-12-05T15:34:46.251Z,29.84
2022-12-05T15:37:16.831Z,30.41
2022-12-05T15:40:03.126Z,30.45
2022-12-05T15:42:42.218Z,30.68
2022-12-05T15:45:14.988Z,31.10
2022-12-05T15:48:05.844Z,30.65
2022-12-05T15:50:39.498Z,29.98
2022-12-05T15:53:17.252Z,29.91
2022-12-05T15:55:55.102Z,29.85
2022-12-05T15:58:36.765Z,30.35
2022-12-05T16:01:27.943Z,30.61
2022-12-05T16:04:03.426Z,30.86
2022-12-05T16:06:50.664Z,30.75
2022-12-05T16:09:24.080Z,31.13
2022-12-05T16:11:56.951Z,30.11
2022-12-05T16:14:59.026Z,29.66
2022-12-05T16:17:26.859Z,29.49
2022-12-05T16:20:15.022Z,29.52
2022-12-05T16:22:56.505Z,30.24
2022-12-05T16:25:33.144Z,30.68
2022-12-05T16:28:19.211Z,30.83
2022-12-05T16:31:04.448Z,31.38
2022-12-05T16:33:40.193Z,31.27
2022-12-05T16:36:14.852Z,31.48
2022-12-05T16:38:47.329Z,31.91
2022-12-05T16:41:18.525Z,31.95
2022-12-05T16:43:48.882Z,31.78
2022-12-05T16:46:19.255Z,30.99
2022-12-05T16:49:18.198Z,30.59
2022-12-05T16:51:58.813Z,30.80
2022-12-05T16:54:29.286Z,30.48
2022-12-05T16:57:02.256Z,30.44
2022-12-05T16:59:40.454Z,30.61
2022-12-05T17:02:20.626Z,30.90
2022-12-05T17:04:51.090Z,31.36
2022-12-05T17:07:21.561Z,30.89
2022-12-05T17:09:51.890Z,30.32
2022-12-05T17:12:26.646Z,30.28
2022-12-05T17:14:57.445Z,30.45
2022-12-05T17:17:28.055Z,30.36
2022-12-05T17:19:58.374Z,30.55
2022-12-05T17:22:29.520Z,30.29
2022-12-05T17:25:01.885Z,30.14
2022-12-05T17:27:32.254Z,29.97
2022-12-05T17:30:02.812Z,29.59
2022-12-05T17:32:33.190Z,29.32
2022-12-05T17:35:21.842Z,29.64
2022-12-05T17:37:51.678Z,29.32
2022-12-05T17:40:21.753Z,29.27
2022-12-05T17:42:52.030Z,29.35
2022-12-05T17:45:52.151Z,29.87
2022-12-05T17:48:22.940Z,29.72
2022-12-05T17:50:53.361Z,30.24
2022-12-05T17:53:23.847Z,30.55
2022-12-05T17:55:54.340Z,30.71
2022-12-05T17:58:24.690Z,30.69
2022-12-05T18:00:55.085Z,30.80
2022-12-05T18:03:25.481Z,30.74
2022-12-05T18:05:55.905Z,30.31
2022-12-05T18:08:26.518Z,30.00
2022-12-05T18:10:58.777Z,29.81
2022-12-05T18:13:29.000Z,29.60
2022-12-05T18:16:01.074Z,29.93
2022-12-05T18:18:31.576Z,30.35
2022-12-05T18:21:08.756Z,30.64
2022-12-05T18:23:39.989Z,30.71
2022-12-05T18:26:11.803Z,30.49
2022-12-05T18:28:42.640Z,30.03
2022-12-05T18:31:16.892Z,29.83
2022-12-05T18:33:48.342Z,29.83
2022-12-05T18:36:21.924Z,29.60
2022-12-05T18:39:00.965Z,29.57
2022-12-05T18:41:31.416Z,29.33
2022-12-05T18:44:01.743Z,29.70
2022-12-05T18:46:32.378Z,29.77
2022-12-05T18:49:03.931Z,30.07
2022-12-05T18:51:34.299Z,29.94
2022-12-05T18:54:05.330Z,29.67
2022-12-05T18:56:37.434Z,29.53
2022-12-05T18:59:16.228Z,29.46
2022-12-05T19:01:47.513Z,29.39
2022-12-05T19:04:20.434Z,29.35
2022-12-05T19:06:56.455Z,28.88
2022-12-05T19:09:29.642Z,29.05
2022-12-05T19:12:02.087Z,28.98
2022-12-05T19:14:34.363Z,28.90
2022-12-05T19:17:05.335Z,28.82
2022-12-05T19:19:35.672Z,28.71
2022-12-05T19:22:06.131Z,28.79
2022-12-05T19:24:38.163Z,28.84
2022-12-05T19:27:08.383Z,28.79
2022-12-05T19:29:38.742Z,28.88
2022-12-05T19:32:09.408Z,28.58
2022-12-05T19:34:39.754Z,28.43
2022-12-05T19:37:09.874Z,28.30
2022-12-05T19:39:40.267Z,28.27
2022-12-05T19:42:10.608Z,28.16
2022-12-05T19:44:40.810Z,28.02
2022-12-05T19:47:11.008Z,27.86
2022-12-05T19:49:41.368Z,27.79
2022-12-05T19:52:11.732Z,27.76
2022-12-05T19:54:42.038Z,27.59
2022-12-05T19:57:13.144Z,27.69
2022-12-05T19:59:43.409Z,27.72
2022-12-05T20:02:13.936Z,27.70
2022-12-05T20:04:44.516Z,27.66
2022-12-05T20:07:14.774Z,27.49
2022-12-05T20:09:45.962Z,27.45
2022-12-05T20:12:17.423Z,27.39
2022-12-05T20:14:47.687Z,27.32
2022-12-05T20:17:18.271Z,27.35
2022-12-05T20:19:48.545Z,27.28
2022-12-05T20:22:19.112Z,27.24
2022-12-05T20:24:49.470Z,27.21
2022-12-05T20:27:19.781Z,27.11
2022-12-05T20:29:50.212Z,27.12
2022-12-05T20:32:40.048Z,27.11
2022-12-05T20:35:10.596Z,27.05
2022-12-05T20:37:41.068Z,26.98
2022-12-05T20:40:12.745Z,27.02
2022-12-05T20:42:46.640Z,26.97
2022-12-05T20:45:17.509Z,26.98
2022-12-05T20:47:48.655Z,26.95
2022-12-05T20:50:19.062Z,27.08
2022-12-05T20:52:49.362Z,27.12
2022-12-05T20:55:19.721Z,27.15
2022-12-05T20:57:50.368Z,26.98
2022-12-05T21:00:22.677Z,27.16
2022-12-05T21:02:53.012Z,26.95
2022-12-05T21:05:23.311Z,26.76
2022-12-05T21:07:53.688Z,26.63
2022-12-05T21:10:24.195Z,26.53
2022-12-05T21:12:55.113Z,26.39
2022-12-05T21:15:25.363Z,26.40
2022-12-05T21:17:55.653Z,26.54
2022-12-05T21:20:25.940Z,26.35
2022-12-05T21:22:56.345Z,26.18
2022-12-05T21:25:26.504Z,26.13
2022-12-05T21:27:56.987Z,26.06
2022-12-05T21:30:27.249Z,26.05
2022-12-05T21:32:57.648Z,26.13
2022-12-05T21:35:27.981Z,26.05
2022-12-05T21:37:58.667Z,25.99
2022-12-05T21:40:28.932Z,25.92
2022-12-05T21:42:59.244Z,25.84
2022-12-05T21:45:29.534Z,25.71
2022-12-05T21:48:00.419Z,25.62
2022-12-05T21:50:30.782Z,25.52
2022-12-05T21:53:01.042Z,25.47
2022-12-05T21:55:31.252Z,25.40
2022-12-05T21:58:01.635Z,25.33
2022-12-05T22:00:32.027Z,25.24
2022-12-05T22:03:03.429Z,25.26
2022-12-05T22:05:34.754Z,25.38
2022-12-05T22:08:06.795Z,25.50
2022-12-05T22:10:37.640Z,25.16
2022-12-05T22:13:07.995Z,25.04
2022-12-05T22:15:38.365Z,24.93
2022-12-05T22:18:08.714Z,24.91
2022-12-05T22:20:38.995Z,24.83
2022-12-05T22:23:12.496Z,24.80
2022-12-05T22:25:57.575Z,24.76
2022-12-05T22:28:28.890Z,24.70
2022-12-05T22:31:01.218Z,24.69
2022-12-05T22:33:33.266Z,24.65
2022-12-05T22:36:04.478Z,24.56
2022-12-05T22:38:37.435Z,24.56
2022-12-05T22:41:10.500Z,24.55
2022-12-05T22:43:40.909Z,24.49
2022-12-05T22:46:20.210Z,24.43
2022-12-05T22:48:52.046Z,24.42
2022-12-05T22:51:23.968Z,24.38
2022-12-05T22:53:55.867Z,24.30
2022-12-05T22:56:29.543Z,24.30
2022-12-05T22:59:02.352Z,24.25
2022-12-05T23:01:35.192Z,24.24
2022-12-05T23:04:23.605Z,24.19
2022-12-05T23:06:54.142Z,24.18
2022-12-05T23:09:24.668Z,24.11
2022-12-05T23:11:54.929Z,24.07
2022-12-05T23:14:25.264Z,24.08
2022-12-05T23:16:55.675Z,24.02
2022-12-05T23:19:25.998Z,24.01
2022-12-05T23:21:56.396Z,23.94
2022-12-05T23:24:28.118Z,23.96
2022-12-05T23:27:01.566Z,23.90
2022-12-05T23:29:44.012Z,23.85
2022-12-05T23:32:14.448Z,23.80
2022-12-05T23:34:45.089Z,23.78
2022-12-05T23:37:15.546Z,23.80
2022-12-05T23:39:45.821Z,23.78
2022-12-05T23:42:16.377Z,23.74
2022-12-05T23:44:47.357Z,23.80
2022-12-05T23:47:17.814Z,23.81
2022-12-05T23:49:48.145Z,23.77
2022-12-05T23:52:18.437Z,23.73
2022-12-05T23:54:48.705Z,23.78
2022-12-05T23:57:19.404Z,23.77
2022-12-05T23:59:50.477Z,23.77
